Terminal Aerodrome Forecast
Issued by NWS

Home | Current Version | Previous Version | Text Only | Print | Product List | Glossary On
Versions: 1 2 3 4 5 6 7 8 9 10 11 12 13 14
538
FTUS44 KTSA 280520
TAFXNA
TAF
KXNA 280520Z 2806/2906 22003KT P6SM VCTS OVC110CB
      TEMPO 2808/2812 4SM -TSRA BKN040CB
     FM281200 02005KT P6SM BKN020
     FM281900 36007KT P6SM BKN050
     FM290000 00000KT P6SM BKN250=

USA.gov is the U.S. government's official web portal to all federal, state and local government web resources and services.